sensor_id;sensor_type;location;lat;lon;timestamp;P1;durP1;ratioP1;P2;durP2;ratioP2
3561;SDS011;1795;52.074;4.754;2023-03-01T00:01:12;11.55;;;10.35;;
3561;SDS011;1795;52.074;4.754;2023-03-01T00:03:41;11.93;;;10.60;;
3561;SDS011;1795;52.074;4.754;2023-03-01T00:06:11;12.98;;;11.57;;
3561;SDS011;1795;52.074;4.754;2023-03-01T00:08:39;14.93;;;11.32;;
3561;SDS011;1795;52.074;4.754;2023-03-01T00:11:08;13.48;;;11.82;;
3561;SDS011;1795;52.074;4.754;2023-03-01T00:13:39;13.18;;;11.80;;
3561;SDS011;1795;52.074;4.754;2023-03-01T00:16:09;15.05;;;11.38;;
3561;SDS011;1795;52.074;4.754;2023-03-01T00:18:39;17.02;;;12.38;;
3561;SDS011;1795;52.074;4.754;2023-03-01T00:21:08;16.50;;;12.55;;
3561;SDS011;1795;52.074;4.754;2023-03-01T00:23:36;12.00;;;10.70;;
3561;SDS011;1795;52.074;4.754;2023-03-01T00:26:06;13.20;;;11.80;;
3561;SDS011;1795;52.074;4.754;2023-03-01T00:28:35;14.00;;;11.90;;
3561;SDS011;1795;52.074;4.754;2023-03-01T00:31:04;14.63;;;11.60;;
3561;SDS011;1795;52.074;4.754;2023-03-01T00:33:32;15.77;;;11.93;;
3561;SDS011;1795;52.074;4.754;2023-03-01T00:36:01;14.00;;;12.50;;
3561;SDS011;1795;52.074;4.754;2023-03-01T00:38:33;14.32;;;12.82;;
3561;SDS011;1795;52.074;4.754;2023-03-01T00:41:02;15.97;;;12.30;;
3561;SDS011;1795;52.074;4.754;2023-03-01T00:43:31;15.45;;;12.07;;
3561;SDS011;1795;52.074;4.754;2023-03-01T00:46:03;14.90;;;12.35;;
3561;SDS011;1795;52.074;4.754;2023-03-01T00:48:32;15.50;;;12.32;;
3561;SDS011;1795;52.074;4.754;2023-03-01T00:51:04;17.80;;;13.70;;
3561;SDS011;1795;52.074;4.754;2023-03-01T00:53:35;17.95;;;13.20;;
3561;SDS011;1795;52.074;4.754;2023-03-01T00:56:04;16.45;;;13.40;;
3561;SDS011;1795;52.074;4.754;2023-03-01T00:58:33;15.80;;;12.95;;
3561;SDS011;1795;52.074;4.754;2023-03-01T01:01:06;17.40;;;13.57;;
3561;SDS011;1795;52.074;4.754;2023-03-01T01:03:44;17.53;;;13.77;;
3561;SDS011;1795;52.074;4.754;2023-03-01T01:06:13;16.55;;;14.02;;
3561;SDS011;1795;52.074;4.754;2023-03-01T01:08:44;18.30;;;13.80;;
3561;SDS011;1795;52.074;4.754;2023-03-01T01:11:12;16.98;;;13.30;;
3561;SDS011;1795;52.074;4.754;2023-03-01T01:13:41;21.20;;;15.73;;
3561;SDS011;1795;52.074;4.754;2023-03-01T01:16:11;17.25;;;15.35;;
3561;SDS011;1795;52.074;4.754;2023-03-01T01:18:39;18.83;;;15.93;;
3561;SDS011;1795;52.074;4.754;2023-03-01T01:21:08;20.80;;;15.98;;
3561;SDS011;1795;52.074;4.754;2023-03-01T01:23:38;17.98;;;14.70;;
3561;SDS011;1795;52.074;4.754;2023-03-01T01:26:09;19.15;;;15.20;;
3561;SDS011;1795;52.074;4.754;2023-03-01T01:28:38;21.50;;;15.27;;
3561;SDS011;1795;52.074;4.754;2023-03-01T01:31:07;17.08;;;14.68;;
3561;SDS011;1795;52.074;4.754;2023-03-01T01:33:35;18.45;;;15.07;;
3561;SDS011;1795;52.074;4.754;2023-03-01T01:36:04;18.02;;;15.35;;
3561;SDS011;1795;52.074;4.754;2023-03-01T01:38:33;21.27;;;15.15;;
3561;SDS011;1795;52.074;4.754;2023-03-01T01:41:01;19.80;;;16.08;;
3561;SDS011;1795;52.074;4.754;2023-03-01T01:43:32;20.83;;;15.80;;
3561;SDS011;1795;52.074;4.754;2023-03-01T01:46:03;17.48;;;14.77;;
3561;SDS011;1795;52.074;4.754;2023-03-01T01:48:36;20.00;;;16.20;;
3561;SDS011;1795;52.074;4.754;2023-03-01T01:51:10;19.15;;;15.82;;
3561;SDS011;1795;52.074;4.754;2023-03-01T01:53:40;18.52;;;14.52;;
3561;SDS011;1795;52.074;4.754;2023-03-01T01:56:09;20.10;;;16.25;;
3561;SDS011;1795;52.074;4.754;2023-03-01T01:58:41;19.35;;;15.90;;
3561;SDS011;1795;52.074;4.754;2023-03-01T02:01:13;20.83;;;15.50;;
3561;SDS011;1795;52.074;4.754;2023-03-01T02:03:42;19.55;;;16.35;;
3561;SDS011;1795;52.074;4.754;2023-03-01T02:06:12;21.13;;;15.50;;
3561;SDS011;1795;52.074;4.754;2023-03-01T02:08:46;20.95;;;15.60;;
3561;SDS011;1795;52.074;4.754;2023-03-01T02:11:16;19.38;;;15.68;;
3561;SDS011;1795;52.074;4.754;2023-03-01T02:13:47;22.38;;;16.90;;
3561;SDS011;1795;52.074;4.754;2023-03-01T02:16:15;20.58;;;16.13;;
3561;SDS011;1795;52.074;4.754;2023-03-01T02:18:44;20.92;;;17.17;;
3561;SDS011;1795;52.074;4.754;2023-03-01T02:21:17;20.75;;;16.67;;
3561;SDS011;1795;52.074;4.754;2023-03-01T02:23:58;21.23;;;17.90;;
3561;SDS011;1795;52.074;4.754;2023-03-01T02:26:32;21.40;;;16.63;;
3561;SDS011;1795;52.074;4.754;2023-03-01T02:29:06;19.83;;;17.27;;
3561;SDS011;1795;52.074;4.754;2023-03-01T02:31:34;20.27;;;16.85;;
3561;SDS011;1795;52.074;4.754;2023-03-01T02:34:09;22.85;;;17.75;;
3561;SDS011;1795;52.074;4.754;2023-03-01T02:36:39;20.00;;;16.20;;
3561;SDS011;1795;52.074;4.754;2023-03-01T02:39:11;18.17;;;15.68;;
3561;SDS011;1795;52.074;4.754;2023-03-01T02:41:44;23.63;;;16.73;;
3561;SDS011;1795;52.074;4.754;2023-03-01T02:44:16;18.98;;;16.38;;
3561;SDS011;1795;52.074;4.754;2023-03-01T02:46:44;23.50;;;17.70;;
3561;SDS011;1795;52.074;4.754;2023-03-01T02:49:19;21.05;;;17.58;;
3561;SDS011;1795;52.074;4.754;2023-03-01T02:51:52;21.75;;;17.42;;
3561;SDS011;1795;52.074;4.754;2023-03-01T02:54:48;21.88;;;17.65;;
3561;SDS011;1795;52.074;4.754;2023-03-01T02:57:19;21.73;;;16.45;;
3561;SDS011;1795;52.074;4.754;2023-03-01T02:59:50;22.00;;;17.93;;
3561;SDS011;1795;52.074;4.754;2023-03-01T03:02:20;24.80;;;18.98;;
3561;SDS011;1795;52.074;4.754;2023-03-01T03:05:06;23.35;;;18.13;;
3561;SDS011;1795;52.074;4.754;2023-03-01T03:07:37;24.20;;;18.00;;
3561;SDS011;1795;52.074;4.754;2023-03-01T03:10:07;21.95;;;17.00;;
3561;SDS011;1795;52.074;4.754;2023-03-01T03:12:38;22.83;;;17.98;;
3561;SDS011;1795;52.074;4.754;2023-03-01T03:15:08;22.75;;;18.30;;
3561;SDS011;1795;52.074;4.754;2023-03-01T03:17:39;22.08;;;18.52;;
3561;SDS011;1795;52.074;4.754;2023-03-01T03:20:12;21.52;;;17.65;;
3561;SDS011;1795;52.074;4.754;2023-03-01T03:22:45;21.85;;;18.08;;
3561;SDS011;1795;52.074;4.754;2023-03-01T03:25:14;25.75;;;18.60;;
3561;SDS011;1795;52.074;4.754;2023-03-01T03:27:42;24.40;;;18.25;;
3561;SDS011;1795;52.074;4.754;2023-03-01T03:30:13;26.20;;;19.10;;
3561;SDS011;1795;52.074;4.754;2023-03-01T03:32:43;24.30;;;19.27;;
3561;SDS011;1795;52.074;4.754;2023-03-01T03:35:18;22.60;;;18.25;;
3561;SDS011;1795;52.074;4.754;2023-03-01T03:37:47;20.80;;;17.00;;
3561;SDS011;1795;52.074;4.754;2023-03-01T03:40:33;22.88;;;17.85;;
3561;SDS011;1795;52.074;4.754;2023-03-01T03:43:04;21.63;;;18.10;;
3561;SDS011;1795;52.074;4.754;2023-03-01T03:45:35;24.02;;;18.77;;
3561;SDS011;1795;52.074;4.754;2023-03-01T03:48:04;22.40;;;17.60;;
3561;SDS011;1795;52.074;4.754;2023-03-01T03:50:33;21.70;;;16.40;;
3561;SDS011;1795;52.074;4.754;2023-03-01T03:53:03;20.42;;;17.00;;
3561;SDS011;1795;52.074;4.754;2023-03-01T03:55:33;21.80;;;17.70;;
3561;SDS011;1795;52.074;4.754;2023-03-01T03:58:02;21.05;;;17.73;;
3561;SDS011;1795;52.074;4.754;2023-03-01T04:00:34;21.75;;;17.30;;
3561;SDS011;1795;52.074;4.754;2023-03-01T04:03:03;20.52;;;16.02;;
3561;SDS011;1795;52.074;4.754;2023-03-01T04:05:32;23.35;;;17.63;;
3561;SDS011;1795;52.074;4.754;2023-03-01T04:08:00;22.23;;;17.33;;
3561;SDS011;1795;52.074;4.754;2023-03-01T04:10:28;21.88;;;17.13;;
3561;SDS011;1795;52.074;4.754;2023-03-01T04:12:57;22.25;;;17.90;;
3561;SDS011;1795;52.074;4.754;2023-03-01T04:15:26;22.45;;;18.08;;
3561;SDS011;1795;52.074;4.754;2023-03-01T04:17:55;22.17;;;17.05;;
3561;SDS011;1795;52.074;4.754;2023-03-01T04:20:26;24.88;;;18.63;;
3561;SDS011;1795;52.074;4.754;2023-03-01T04:22:58;23.33;;;17.08;;
3561;SDS011;1795;52.074;4.754;2023-03-01T04:25:37;24.08;;;18.33;;
3561;SDS011;1795;52.074;4.754;2023-03-01T04:28:06;22.38;;;18.45;;
3561;SDS011;1795;52.074;4.754;2023-03-01T04:30:34;21.10;;;17.30;;
3561;SDS011;1795;52.074;4.754;2023-03-01T04:33:05;20.75;;;16.80;;
3561;SDS011;1795;52.074;4.754;2023-03-01T04:35:33;21.67;;;16.33;;
3561;SDS011;1795;52.074;4.754;2023-03-01T04:38:03;17.90;;;15.40;;
3561;SDS011;1795;52.074;4.754;2023-03-01T04:40:31;22.13;;;17.20;;
3561;SDS011;1795;52.074;4.754;2023-03-01T04:42:59;19.75;;;16.98;;
3561;SDS011;1795;52.074;4.754;2023-03-01T04:45:28;20.98;;;16.65;;
3561;SDS011;1795;52.074;4.754;2023-03-01T04:47:56;18.85;;;15.73;;
3561;SDS011;1795;52.074;4.754;2023-03-01T04:50:26;20.20;;;16.95;;
3561;SDS011;1795;52.074;4.754;2023-03-01T04:52:54;22.00;;;16.38;;
3561;SDS011;1795;52.074;4.754;2023-03-01T04:55:25;20.10;;;16.25;;
3561;SDS011;1795;52.074;4.754;2023-03-01T04:57:53;19.88;;;16.10;;
3561;SDS011;1795;52.074;4.754;2023-03-01T05:00:22;22.90;;;16.93;;
3561;SDS011;1795;52.074;4.754;2023-03-01T05:02:51;18.73;;;15.23;;
3561;SDS011;1795;52.074;4.754;2023-03-01T05:05:21;19.10;;;14.80;;
3561;SDS011;1795;52.074;4.754;2023-03-01T05:07:55;19.88;;;16.77;;
3561;SDS011;1795;52.074;4.754;2023-03-01T05:10:25;19.33;;;17.02;;
3561;SDS011;1795;52.074;4.754;2023-03-01T05:12:55;18.67;;;15.77;;
3561;SDS011;1795;52.074;4.754;2023-03-01T05:15:24;18.70;;;14.55;;
3561;SDS011;1795;52.074;4.754;2023-03-01T05:17:53;19.57;;;15.23;;
3561;SDS011;1795;52.074;4.754;2023-03-01T05:20:24;18.45;;;15.77;;
3561;SDS011;1795;52.074;4.754;2023-03-01T05:22:57;19.73;;;15.93;;
3561;SDS011;1795;52.074;4.754;2023-03-01T05:25:26;18.52;;;15.13;;
3561;SDS011;1795;52.074;4.754;2023-03-01T05:27:59;18.67;;;14.70;;
3561;SDS011;1795;52.074;4.754;2023-03-01T05:30:30;19.75;;;15.48;;
3561;SDS011;1795;52.074;4.754;2023-03-01T05:32:59;18.55;;;15.43;;
3561;SDS011;1795;52.074;4.754;2023-03-01T05:35:29;19.38;;;15.00;;
3561;SDS011;1795;52.074;4.754;2023-03-01T05:37:59;19.27;;;16.05;;
3561;SDS011;1795;52.074;4.754;2023-03-01T05:40:27;17.27;;;14.77;;
3561;SDS011;1795;52.074;4.754;2023-03-01T05:42:56;18.10;;;14.90;;
3561;SDS011;1795;52.074;4.754;2023-03-01T05:45:25;19.13;;;15.52;;
3561;SDS011;1795;52.074;4.754;2023-03-01T05:47:54;20.42;;;16.08;;
3561;SDS011;1795;52.074;4.754;2023-03-01T05:50:22;20.90;;;15.93;;
3561;SDS011;1795;52.074;4.754;2023-03-01T05:52:56;19.20;;;15.80;;
3561;SDS011;1795;52.074;4.754;2023-03-01T05:55:26;18.65;;;14.77;;
3561;SDS011;1795;52.074;4.754;2023-03-01T05:57:54;21.08;;;15.68;;
3561;SDS011;1795;52.074;4.754;2023-03-01T06:00:24;18.50;;;15.88;;
3561;SDS011;1795;52.074;4.754;2023-03-01T06:02:53;21.10;;;17.30;;
3561;SDS011;1795;52.074;4.754;2023-03-01T06:05:21;19.58;;;16.80;;
3561;SDS011;1795;52.074;4.754;2023-03-01T06:07:49;19.00;;;15.65;;
3561;SDS011;1795;52.074;4.754;2023-03-01T06:10:21;20.48;;;16.38;;
3561;SDS011;1795;52.074;4.754;2023-03-01T06:12:49;20.75;;;16.58;;
3561;SDS011;1795;52.074;4.754;2023-03-01T06:15:18;18.80;;;15.23;;
3561;SDS011;1795;52.074;4.754;2023-03-01T06:17:47;18.90;;;16.52;;
3561;SDS011;1795;52.074;4.754;2023-03-01T06:20:16;20.13;;;15.90;;
3561;SDS011;1795;52.074;4.754;2023-03-01T06:22:46;20.55;;;16.45;;
3561;SDS011;1795;52.074;4.754;2023-03-01T06:25:16;19.20;;;15.27;;
3561;SDS011;1795;52.074;4.754;2023-03-01T06:27:47;20.95;;;16.40;;
3561;SDS011;1795;52.074;4.754;2023-03-01T06:30:16;23.13;;;17.90;;
3561;SDS011;1795;52.074;4.754;2023-03-01T06:32:45;21.38;;;16.30;;
3561;SDS011;1795;52.074;4.754;2023-03-01T06:35:14;18.27;;;16.17;;
3561;SDS011;1795;52.074;4.754;2023-03-01T06:37:44;19.30;;;16.00;;
3561;SDS011;1795;52.074;4.754;2023-03-01T06:40:13;16.73;;;14.32;;
3561;SDS011;1795;52.074;4.754;2023-03-01T06:42:42;18.00;;;15.70;;
3561;SDS011;1795;52.074;4.754;2023-03-01T06:45:16;18.20;;;14.85;;
3561;SDS011;1795;52.074;4.754;2023-03-01T06:47:46;18.67;;;14.57;;
3561;SDS011;1795;52.074;4.754;2023-03-01T06:50:14;18.10;;;15.45;;
3561;SDS011;1795;52.074;4.754;2023-03-01T06:52:43;16.38;;;14.68;;
3561;SDS011;1795;52.074;4.754;2023-03-01T06:55:11;17.20;;;14.70;;
3561;SDS011;1795;52.074;4.754;2023-03-01T06:57:39;17.30;;;15.47;;
3561;SDS011;1795;52.074;4.754;2023-03-01T07:00:08;16.85;;;14.70;;
3561;SDS011;1795;52.074;4.754;2023-03-01T07:02:38;16.73;;;14.35;;
3561;SDS011;1795;52.074;4.754;2023-03-01T07:05:06;16.98;;;14.18;;
3561;SDS011;1795;52.074;4.754;2023-03-01T07:07:35;15.00;;;12.87;;
3561;SDS011;1795;52.074;4.754;2023-03-01T07:10:03;16.20;;;14.60;;
3561;SDS011;1795;52.074;4.754;2023-03-01T07:12:32;16.08;;;14.20;;
3561;SDS011;1795;52.074;4.754;2023-03-01T07:15:00;15.45;;;13.30;;
3561;SDS011;1795;52.074;4.754;2023-03-01T07:17:28;18.33;;;14.60;;
3561;SDS011;1795;52.074;4.754;2023-03-01T07:19:57;16.83;;;14.32;;
3561;SDS011;1795;52.074;4.754;2023-03-01T07:22:25;16.38;;;13.93;;
3561;SDS011;1795;52.074;4.754;2023-03-01T07:24:53;16.92;;;14.40;;
3561;SDS011;1795;52.074;4.754;2023-03-01T07:27:21;17.17;;;13.40;;
3561;SDS011;1795;52.074;4.754;2023-03-01T07:29:49;18.85;;;15.20;;
3561;SDS011;1795;52.074;4.754;2023-03-01T07:32:17;17.50;;;14.50;;
3561;SDS011;1795;52.074;4.754;2023-03-01T07:34:45;20.37;;;15.13;;
3561;SDS011;1795;52.074;4.754;2023-03-01T07:37:14;19.13;;;15.35;;
3561;SDS011;1795;52.074;4.754;2023-03-01T07:39:42;17.50;;;13.90;;
3561;SDS011;1795;52.074;4.754;2023-03-01T07:42:10;17.92;;;14.80;;
3561;SDS011;1795;52.074;4.754;2023-03-01T07:44:38;19.90;;;15.93;;
3561;SDS011;1795;52.074;4.754;2023-03-01T07:47:06;22.35;;;16.73;;
3561;SDS011;1795;52.074;4.754;2023-03-01T07:49:34;22.42;;;16.90;;
3561;SDS011;1795;52.074;4.754;2023-03-01T07:52:02;22.33;;;17.50;;
3561;SDS011;1795;52.074;4.754;2023-03-01T07:54:32;19.23;;;15.90;;
3561;SDS011;1795;52.074;4.754;2023-03-01T07:57:00;20.40;;;15.90;;
3561;SDS011;1795;52.074;4.754;2023-03-01T07:59:28;20.10;;;16.00;;
3561;SDS011;1795;52.074;4.754;2023-03-01T08:01:56;22.55;;;16.73;;
3561;SDS011;1795;52.074;4.754;2023-03-01T08:04:24;22.35;;;16.80;;
3561;SDS011;1795;52.074;4.754;2023-03-01T08:06:52;20.27;;;16.27;;
3561;SDS011;1795;52.074;4.754;2023-03-01T08:09:21;24.42;;;16.23;;
3561;SDS011;1795;52.074;4.754;2023-03-01T08:11:50;22.17;;;16.67;;
3561;SDS011;1795;52.074;4.754;2023-03-01T08:14:18;24.48;;;17.70;;
3561;SDS011;1795;52.074;4.754;2023-03-01T08:16:48;23.27;;;16.70;;
3561;SDS011;1795;52.074;4.754;2023-03-01T08:19:16;22.25;;;17.75;;
3561;SDS011;1795;52.074;4.754;2023-03-01T08:21:45;21.38;;;16.17;;
3561;SDS011;1795;52.074;4.754;2023-03-01T08:24:12;23.60;;;16.90;;
3561;SDS011;1795;52.074;4.754;2023-03-01T08:26:40;21.77;;;16.73;;
3561;SDS011;1795;52.074;4.754;2023-03-01T08:29:10;22.30;;;17.13;;
3561;SDS011;1795;52.074;4.754;2023-03-01T08:31:38;22.92;;;18.52;;
3561;SDS011;1795;52.074;4.754;2023-03-01T08:34:08;23.67;;;18.13;;
3561;SDS011;1795;52.074;4.754;2023-03-01T08:36:38;22.58;;;17.55;;
3561;SDS011;1795;52.074;4.754;2023-03-01T08:39:07;21.05;;;16.90;;
3561;SDS011;1795;52.074;4.754;2023-03-01T08:41:36;24.27;;;18.23;;
3561;SDS011;1795;52.074;4.754;2023-03-01T08:44:04;23.48;;;17.50;;
3561;SDS011;1795;52.074;4.754;2023-03-01T08:46:37;22.15;;;17.70;;
3561;SDS011;1795;52.074;4.754;2023-03-01T08:49:06;21.20;;;16.17;;
3561;SDS011;1795;52.074;4.754;2023-03-01T08:51:35;22.42;;;17.10;;
3561;SDS011;1795;52.074;4.754;2023-03-01T08:54:03;22.25;;;16.67;;
3561;SDS011;1795;52.074;4.754;2023-03-01T08:56:33;22.33;;;16.98;;
3561;SDS011;1795;52.074;4.754;2023-03-01T08:59:01;23.88;;;17.52;;
3561;SDS011;1795;52.074;4.754;2023-03-01T09:01:29;22.23;;;16.23;;
3561;SDS011;1795;52.074;4.754;2023-03-01T09:03:58;20.83;;;16.35;;
3561;SDS011;1795;52.074;4.754;2023-03-01T09:06:29;21.65;;;16.73;;
3561;SDS011;1795;52.074;4.754;2023-03-01T09:08:58;19.97;;;15.07;;
3561;SDS011;1795;52.074;4.754;2023-03-01T09:11:27;22.33;;;15.57;;
3561;SDS011;1795;52.074;4.754;2023-03-01T09:13:55;20.38;;;15.25;;
3561;SDS011;1795;52.074;4.754;2023-03-01T09:16:24;20.75;;;16.08;;
3561;SDS011;1795;52.074;4.754;2023-03-01T09:18:53;21.63;;;15.35;;
3561;SDS011;1795;52.074;4.754;2023-03-01T09:21:23;21.75;;;16.52;;
3561;SDS011;1795;52.074;4.754;2023-03-01T09:24:06;20.88;;;15.48;;
3561;SDS011;1795;52.074;4.754;2023-03-01T09:26:35;22.27;;;16.30;;
3561;SDS011;1795;52.074;4.754;2023-03-01T09:29:03;19.67;;;15.48;;
3561;SDS011;1795;52.074;4.754;2023-03-01T09:31:31;19.42;;;14.90;;
3561;SDS011;1795;52.074;4.754;2023-03-01T09:33:59;18.15;;;15.63;;
3561;SDS011;1795;52.074;4.754;2023-03-01T09:36:29;17.77;;;14.23;;
3561;SDS011;1795;52.074;4.754;2023-03-01T09:38:58;17.55;;;14.35;;
3561;SDS011;1795;52.074;4.754;2023-03-01T09:41:40;18.95;;;15.20;;
3561;SDS011;1795;52.074;4.754;2023-03-01T09:44:15;19.67;;;15.10;;
3561;SDS011;1795;52.074;4.754;2023-03-01T09:46:52;16.37;;;13.53;;
3561;SDS011;1795;52.074;4.754;2023-03-01T09:49:20;17.70;;;13.40;;
3561;SDS011;1795;52.074;4.754;2023-03-01T09:51:57;16.13;;;13.60;;
3561;SDS011;1795;52.074;4.754;2023-03-01T09:54:28;18.45;;;12.57;;
3561;SDS011;1795;52.074;4.754;2023-03-01T09:57:07;18.92;;;13.65;;
3561;SDS011;1795;52.074;4.754;2023-03-01T09:59:48;15.48;;;12.10;;
3561;SDS011;1795;52.074;4.754;2023-03-01T10:02:32;12.55;;;10.73;;
3561;SDS011;1795;52.074;4.754;2023-03-01T10:05:09;13.03;;;10.43;;
3561;SDS011;1795;52.074;4.754;2023-03-01T10:08:01;12.13;;;10.43;;
3561;SDS011;1795;52.074;4.754;2023-03-01T10:10:50;12.65;;;10.13;;
3561;SDS011;1795;52.074;4.754;2023-03-01T10:13:21;12.70;;;11.38;;
3561;SDS011;1795;52.074;4.754;2023-03-01T10:15:55;15.35;;;11.70;;
3561;SDS011;1795;52.074;4.754;2023-03-01T10:18:27;17.63;;;12.30;;
3561;SDS011;1795;52.074;4.754;2023-03-01T10:20:59;12.82;;;11.40;;
3561;SDS011;1795;52.074;4.754;2023-03-01T10:23:31;12.93;;;11.33;;
3561;SDS011;1795;52.074;4.754;2023-03-01T10:26:05;14.13;;;11.85;;
3561;SDS011;1795;52.074;4.754;2023-03-01T10:28:43;16.77;;;12.55;;
3561;SDS011;1795;52.074;4.754;2023-03-01T10:31:18;14.43;;;12.85;;
3561;SDS011;1795;52.074;4.754;2023-03-01T10:33:55;15.37;;;13.10;;
3561;SDS011;1795;52.074;4.754;2023-03-01T10:36:24;14.90;;;12.43;;
3561;SDS011;1795;52.074;4.754;2023-03-01T10:38:55;16.27;;;12.75;;
3561;SDS011;1795;52.074;4.754;2023-03-01T10:41:24;15.73;;;12.77;;
3561;SDS011;1795;52.074;4.754;2023-03-01T10:43:54;15.10;;;12.55;;
3561;SDS011;1795;52.074;4.754;2023-03-01T10:46:24;17.55;;;13.85;;
3561;SDS011;1795;52.074;4.754;2023-03-01T10:49:06;15.90;;;13.55;;
3561;SDS011;1795;52.074;4.754;2023-03-01T10:51:41;14.25;;;12.27;;
3561;SDS011;1795;52.074;4.754;2023-03-01T10:54:19;13.25;;;10.43;;
3561;SDS011;1795;52.074;4.754;2023-03-01T10:56:49;11.80;;;10.05;;
3561;SDS011;1795;52.074;4.754;2023-03-01T10:59:22;11.70;;;9.90;;
3561;SDS011;1795;52.074;4.754;2023-03-01T11:02:04;14.47;;;11.20;;
3561;SDS011;1795;52.074;4.754;2023-03-01T11:04:58;12.00;;;9.90;;
3561;SDS011;1795;52.074;4.754;2023-03-01T11:07:27;12.70;;;9.93;;
3561;SDS011;1795;52.074;4.754;2023-03-01T11:09:57;14.65;;;10.10;;
3561;SDS011;1795;52.074;4.754;2023-03-01T11:12:25;13.02;;;10.20;;
3561;SDS011;1795;52.074;4.754;2023-03-01T11:14:55;14.52;;;10.52;;
3561;SDS011;1795;52.074;4.754;2023-03-01T11:17:26;13.60;;;11.40;;
3561;SDS011;1795;52.074;4.754;2023-03-01T11:20:06;14.80;;;11.00;;
3561;SDS011;1795;52.074;4.754;2023-03-01T11:22:45;13.80;;;10.13;;
3561;SDS011;1795;52.074;4.754;2023-03-01T11:25:19;11.70;;;9.35;;
3561;SDS011;1795;52.074;4.754;2023-03-01T11:27:50;10.90;;;8.90;;
3561;SDS011;1795;52.074;4.754;2023-03-01T11:30:21;8.60;;;7.65;;
3561;SDS011;1795;52.074;4.754;2023-03-01T11:32:57;8.38;;;7.50;;
3561;SDS011;1795;52.074;4.754;2023-03-01T11:35:32;7.90;;;6.70;;
3561;SDS011;1795;52.074;4.754;2023-03-01T11:38:09;8.02;;;7.03;;
3561;SDS011;1795;52.074;4.754;2023-03-01T11:40:47;11.23;;;8.00;;
3561;SDS011;1795;52.074;4.754;2023-03-01T11:43:23;7.70;;;6.88;;
3561;SDS011;1795;52.074;4.754;2023-03-01T11:48:59;7.75;;;6.40;;
3561;SDS011;1795;52.074;4.754;2023-03-01T11:51:38;7.35;;;6.50;;
3561;SDS011;1795;52.074;4.754;2023-03-01T11:54:18;8.90;;;7.15;;
3561;SDS011;1795;52.074;4.754;2023-03-01T11:56:57;7.90;;;7.10;;
3561;SDS011;1795;52.074;4.754;2023-03-01T11:59:45;8.23;;;6.70;;
3561;SDS011;1795;52.074;4.754;2023-03-01T12:08:53;8.30;;;6.70;;
3561;SDS011;1795;52.074;4.754;2023-03-01T12:11:35;7.72;;;6.53;;
3561;SDS011;1795;52.074;4.754;2023-03-01T12:14:16;8.70;;;7.63;;
3561;SDS011;1795;52.074;4.754;2023-03-01T12:17:07;8.50;;;7.70;;
3561;SDS011;1795;52.074;4.754;2023-03-01T12:20:11;10.05;;;7.25;;
3561;SDS011;1795;52.074;4.754;2023-03-01T12:22:49;9.30;;;7.35;;
3561;SDS011;1795;52.074;4.754;2023-03-01T12:25:44;8.77;;;7.10;;
3561;SDS011;1795;52.074;4.754;2023-03-01T12:28:19;9.60;;;7.40;;
3561;SDS011;1795;52.074;4.754;2023-03-01T12:34:01;10.48;;;7.72;;
3561;SDS011;1795;52.074;4.754;2023-03-01T12:36:39;6.97;;;6.38;;
3561;SDS011;1795;52.074;4.754;2023-03-01T12:39:31;7.13;;;6.30;;
3561;SDS011;1795;52.074;4.754;2023-03-01T12:42:08;6.97;;;6.27;;
3561;SDS011;1795;52.074;4.754;2023-03-01T12:44:47;6.97;;;6.25;;
3561;SDS011;1795;52.074;4.754;2023-03-01T12:50:24;6.90;;;6.20;;
3561;SDS011;1795;52.074;4.754;2023-03-01T12:53:00;6.75;;;5.97;;
3561;SDS011;1795;52.074;4.754;2023-03-01T12:55:28;6.93;;;6.22;;
3561;SDS011;1795;52.074;4.754;2023-03-01T12:58:03;6.50;;;5.35;;
3561;SDS011;1795;52.074;4.754;2023-03-01T13:00:39;5.70;;;5.20;;
3561;SDS011;1795;52.074;4.754;2023-03-01T13:03:17;7.60;;;6.43;;
3561;SDS011;1795;52.074;4.754;2023-03-01T13:05:56;8.30;;;6.00;;
3561;SDS011;1795;52.074;4.754;2023-03-01T13:08:34;8.45;;;5.80;;
3561;SDS011;1795;52.074;4.754;2023-03-01T13:11:11;7.35;;;6.65;;
3561;SDS011;1795;52.074;4.754;2023-03-01T13:13:45;7.15;;;6.20;;
3561;SDS011;1795;52.074;4.754;2023-03-01T13:16:22;6.50;;;5.78;;
3561;SDS011;1795;52.074;4.754;2023-03-01T13:19:10;7.00;;;6.30;;
3561;SDS011;1795;52.074;4.754;2023-03-01T13:21:43;8.93;;;6.13;;
3561;SDS011;1795;52.074;4.754;2023-03-01T13:24:25;6.72;;;6.03;;
3561;SDS011;1795;52.074;4.754;2023-03-01T13:27:10;6.80;;;6.10;;
3561;SDS011;1795;52.074;4.754;2023-03-01T13:29:51;9.40;;;6.70;;
3561;SDS011;1795;52.074;4.754;2023-03-01T13:32:21;6.97;;;6.28;;
3561;SDS011;1795;52.074;4.754;2023-03-01T13:35:03;6.20;;;5.60;;
3561;SDS011;1795;52.074;4.754;2023-03-01T13:41:05;7.37;;;5.93;;
3561;SDS011;1795;52.074;4.754;2023-03-01T13:43:34;6.22;;;5.57;;
3561;SDS011;1795;52.074;4.754;2023-03-01T13:46:07;6.87;;;5.53;;
3561;SDS011;1795;52.074;4.754;2023-03-01T13:48:43;7.00;;;6.40;;
3561;SDS011;1795;52.074;4.754;2023-03-01T13:51:14;8.63;;;6.07;;
3561;SDS011;1795;52.074;4.754;2023-03-01T13:53:44;6.55;;;5.88;;
3561;SDS011;1795;52.074;4.754;2023-03-01T13:56:15;8.20;;;5.70;;
3561;SDS011;1795;52.074;4.754;2023-03-01T13:58:48;7.70;;;6.20;;
3561;SDS011;1795;52.074;4.754;2023-03-01T14:01:26;7.35;;;6.10;;
3561;SDS011;1795;52.074;4.754;2023-03-01T14:03:57;6.07;;;5.40;;
3561;SDS011;1795;52.074;4.754;2023-03-01T14:06:26;5.93;;;5.32;;
3561;SDS011;1795;52.074;4.754;2023-03-01T14:09:05;7.55;;;5.70;;
3561;SDS011;1795;52.074;4.754;2023-03-01T14:14:46;7.30;;;6.30;;
3561;SDS011;1795;52.074;4.754;2023-03-01T14:17:26;7.30;;;5.82;;
3561;SDS011;1795;52.074;4.754;2023-03-01T14:20:08;7.57;;;5.00;;
3561;SDS011;1795;52.074;4.754;2023-03-01T14:22:40;5.80;;;5.20;;
3561;SDS011;1795;52.074;4.754;2023-03-01T14:25:19;5.82;;;5.30;;
3561;SDS011;1795;52.074;4.754;2023-03-01T14:27:57;5.50;;;5.00;;
3561;SDS011;1795;52.074;4.754;2023-03-01T14:30:32;6.93;;;5.20;;
3561;SDS011;1795;52.074;4.754;2023-03-01T14:33:03;8.38;;;6.65;;
3561;SDS011;1795;52.074;4.754;2023-03-01T14:35:34;6.57;;;5.85;;
3561;SDS011;1795;52.074;4.754;2023-03-01T14:38:03;6.70;;;5.70;;
3561;SDS011;1795;52.074;4.754;2023-03-01T14:40:34;6.10;;;4.97;;
3561;SDS011;1795;52.074;4.754;2023-03-01T14:43:08;7.57;;;5.30;;
3561;SDS011;1795;52.074;4.754;2023-03-01T14:45:38;5.90;;;5.28;;
3561;SDS011;1795;52.074;4.754;2023-03-01T14:48:06;6.85;;;5.32;;
3561;SDS011;1795;52.074;4.754;2023-03-01T14:50:35;6.93;;;5.50;;
3561;SDS011;1795;52.074;4.754;2023-03-01T14:53:11;6.00;;;4.90;;
3561;SDS011;1795;52.074;4.754;2023-03-01T14:55:47;6.60;;;6.00;;
3561;SDS011;1795;52.074;4.754;2023-03-01T14:58:19;6.00;;;5.50;;
3561;SDS011;1795;52.074;4.754;2023-03-01T15:00:50;6.22;;;5.65;;
3561;SDS011;1795;52.074;4.754;2023-03-01T15:03:23;7.00;;;4.88;;
3561;SDS011;1795;52.074;4.754;2023-03-01T15:05:55;6.00;;;4.77;;
3561;SDS011;1795;52.074;4.754;2023-03-01T15:08:24;5.80;;;5.00;;
3561;SDS011;1795;52.074;4.754;2023-03-01T15:11:01;5.60;;;5.00;;
3561;SDS011;1795;52.074;4.754;2023-03-01T15:13:34;6.65;;;4.68;;
3561;SDS011;1795;52.074;4.754;2023-03-01T15:16:06;6.43;;;5.83;;
3561;SDS011;1795;52.074;4.754;2023-03-01T15:18:36;6.15;;;5.55;;
3561;SDS011;1795;52.074;4.754;2023-03-01T15:21:14;6.57;;;5.85;;
3561;SDS011;1795;52.074;4.754;2023-03-01T15:23:49;5.20;;;4.80;;
3561;SDS011;1795;52.074;4.754;2023-03-01T15:26:25;6.05;;;5.55;;
3561;SDS011;1795;52.074;4.754;2023-03-01T15:28:57;5.90;;;5.00;;
3561;SDS011;1795;52.074;4.754;2023-03-01T15:31:26;7.70;;;5.80;;
3561;SDS011;1795;52.074;4.754;2023-03-01T15:34:10;5.97;;;5.38;;
3561;SDS011;1795;52.074;4.754;2023-03-01T15:36:48;8.13;;;6.57;;
3561;SDS011;1795;52.074;4.754;2023-03-01T15:42:11;6.00;;;5.50;;
3561;SDS011;1795;52.074;4.754;2023-03-01T15:44:40;7.43;;;6.03;;
3561;SDS011;1795;52.074;4.754;2023-03-01T15:47:25;8.13;;;6.22;;
3561;SDS011;1795;52.074;4.754;2023-03-01T15:49:55;9.35;;;6.60;;